Terminal Aerodrome Forecast
Issued by NWS Grand Forks, ND

Home | Current Version | Previous Version | Graphics & Text | Print | Product List | Glossary On
Versions: 1 2 3 4 5 6 7 8 9 10 11 12 13 14 15 16 17 18 19 20 21 22 23 24 25
086
FTUS43 KFGF 240153 AAA
TAFGFK
TAF AMD
KGFK 240153Z 2402/2424 VRB05KT P6SM SCT025 OVC040
     FM240600 34007KT P6SM BKN060
     FM240800 35009KT P6SM BKN025
     FM241200 36010KT P6SM SCT035=

USA.gov is the U.S. government's official web portal to all federal, state and local government web resources and services.